createdAt,value
2019-05-09T00:00:14.636Z,9.73
2019-05-09T00:02:44.193Z,4.45
2019-05-09T00:05:13.933Z,4.20
2019-05-09T00:07:43.927Z,4.97
2019-05-09T00:10:14.290Z,4.53
2019-05-09T00:12:44.973Z,6.30
2019-05-09T00:15:14.206Z,5.12
2019-05-09T00:17:43.918Z,6.67
2019-05-09T00:20:33.063Z,2.80
2019-05-09T00:23:03.277Z,5.10
2019-05-09T00:25:34.259Z,3.50
2019-05-09T00:28:04.226Z,4.15
2019-05-09T00:30:51.062Z,2.95
2019-05-09T00:33:23.552Z,3.15
2019-05-09T00:35:53.416Z,4.35
2019-05-09T00:38:24.112Z,3.70
2019-05-09T00:40:58.670Z,6.75
2019-05-09T00:43:23.831Z,2.42
2019-05-09T00:46:04.273Z,4.45
2019-05-09T00:48:34.911Z,3.37
2019-05-09T00:51:03.817Z,4.30
2019-05-09T00:53:33.906Z,3.17
2019-05-09T00:56:04.107Z,4.22
2019-05-09T00:58:33.703Z,3.07
2019-05-09T01:01:04.431Z,3.52
2019-05-09T01:03:34.120Z,2.87
2019-05-09T01:06:04.563Z,3.12
2019-05-09T01:08:33.805Z,2.45
2019-05-09T01:11:11.866Z,2.58
2019-05-09T01:13:34.183Z,3.42
2019-05-09T01:16:04.565Z,3.40
2019-05-09T01:18:34.461Z,3.13
2019-05-09T01:21:04.092Z,3.50
2019-05-09T01:23:34.417Z,3.12
2019-05-09T01:26:03.990Z,3.40
2019-05-09T01:28:34.141Z,4.58
2019-05-09T01:31:04.056Z,2.65
2019-05-09T01:33:53.467Z,2.22
2019-05-09T01:36:23.481Z,2.42
2019-05-09T01:38:53.943Z,2.87
2019-05-09T01:41:30.434Z,3.30
2019-05-09T01:43:53.726Z,2.98
2019-05-09T01:46:23.567Z,2.47
2019-05-09T01:48:53.925Z,2.37
2019-05-09T01:51:23.440Z,3.87
2019-05-09T01:53:53.993Z,2.83
2019-05-09T01:56:23.481Z,2.83
2019-05-09T01:58:53.897Z,2.70
2019-05-09T02:01:24.095Z,4.22
2019-05-09T02:03:54.536Z,3.27
2019-05-09T02:06:24.513Z,2.22
2019-05-09T02:08:54.450Z,3.00
2019-05-09T02:11:25.314Z,4.45
2019-05-09T02:13:54.366Z,3.27
2019-05-09T02:16:24.808Z,3.47
2019-05-09T02:18:55.249Z,3.25
2019-05-09T02:21:24.205Z,3.25
2019-05-09T02:23:53.773Z,3.25
2019-05-09T02:26:24.031Z,3.20
2019-05-09T02:28:53.837Z,3.40
2019-05-09T02:31:24.475Z,4.58
2019-05-09T02:33:54.345Z,3.22
2019-05-09T02:36:23.439Z,2.47
2019-05-09T02:38:52.344Z,2.40
2019-05-09T02:41:21.260Z,3.10
2019-05-09T02:43:50.163Z,3.52
2019-05-09T02:46:32.885Z,4.10
2019-05-09T02:49:01.791Z,2.92
2019-05-09T02:51:30.811Z,4.92
2019-05-09T02:53:59.712Z,2.55
2019-05-09T02:56:29.947Z,4.42
2019-05-09T02:59:09.994Z,2.77
2019-05-09T03:01:58.557Z,2.27
2019-05-09T03:04:28.548Z,2.40
2019-05-09T03:06:59.698Z,2.95
2019-05-09T03:09:28.772Z,2.80
2019-05-09T03:11:58.968Z,5.08
2019-05-09T03:14:28.834Z,4.10
2019-05-09T03:16:58.861Z,4.75
2019-05-09T03:19:29.650Z,2.65
2019-05-09T03:22:03.119Z,4.42
2019-05-09T03:24:32.434Z,3.22
2019-05-09T03:27:02.910Z,3.25
2019-05-09T03:29:39.434Z,4.20
2019-05-09T03:32:09.146Z,4.37
2019-05-09T03:34:37.393Z,2.85
2019-05-09T03:37:08.340Z,2.77
2019-05-09T03:39:37.749Z,2.27
2019-05-09T03:42:07.875Z,2.37
2019-05-09T03:44:38.528Z,3.10
2019-05-09T03:47:09.301Z,2.20
2019-05-09T03:49:39.187Z,3.05
2019-05-09T03:52:08.142Z,2.77
2019-05-09T03:54:37.642Z,2.35
2019-05-09T03:57:08.207Z,2.58
2019-05-09T03:59:38.133Z,3.08
2019-05-09T04:02:09.944Z,3.40
2019-05-09T04:04:38.353Z,2.10
2019-05-09T04:07:08.411Z,2.10
2019-05-09T04:09:39.611Z,2.90
2019-05-09T04:12:08.102Z,2.60
2019-05-09T04:14:38.038Z,3.77
2019-05-09T04:17:07.873Z,2.58
2019-05-09T04:19:38.051Z,2.25
2019-05-09T04:22:08.120Z,3.00
2019-05-09T04:24:38.207Z,2.92
2019-05-09T04:27:08.913Z,2.40
2019-05-09T04:29:37.822Z,2.27
2019-05-09T04:32:07.930Z,2.55
2019-05-09T04:34:38.087Z,2.72
2019-05-09T04:37:08.020Z,2.60
2019-05-09T04:39:38.691Z,2.87
2019-05-09T04:42:08.575Z,2.58
2019-05-09T04:44:42.116Z,3.42
2019-05-09T04:47:11.007Z,2.05
2019-05-09T04:49:44.804Z,3.02
2019-05-09T04:52:10.579Z,3.08
2019-05-09T04:54:39.466Z,2.55
2019-05-09T04:57:10.317Z,2.58
2019-05-09T04:59:38.946Z,3.02
2019-05-09T05:02:12.144Z,2.80
2019-05-09T05:04:41.054Z,2.75
2019-05-09T05:07:09.959Z,3.00
2019-05-09T05:09:38.868Z,2.65
2019-05-09T05:12:08.465Z,2.67
2019-05-09T05:14:38.417Z,3.40
2019-05-09T05:17:11.240Z,2.33
2019-05-09T05:19:38.430Z,3.65
2019-05-09T05:22:09.138Z,2.62
2019-05-09T05:24:39.692Z,3.20
2019-05-09T05:27:08.594Z,2.77
2019-05-09T05:29:38.372Z,7.67
2019-05-09T05:32:09.071Z,2.00
2019-05-09T05:34:58.344Z,2.40
2019-05-09T05:37:28.221Z,1.98
2019-05-09T05:39:58.298Z,1.80
2019-05-09T05:42:28.178Z,2.47
2019-05-09T05:44:58.293Z,2.55
2019-05-09T05:47:34.448Z,2.25
2019-05-09T05:50:03.454Z,2.00
2019-05-09T05:52:32.464Z,1.80
2019-05-09T05:55:01.370Z,2.15
2019-05-09T05:57:30.256Z,1.85
2019-05-09T05:59:59.167Z,2.37
2019-05-09T06:02:28.238Z,2.10
2019-05-09T06:04:57.930Z,2.10
2019-05-09T06:07:28.543Z,1.90
2019-05-09T06:09:57.715Z,2.20
2019-05-09T06:12:27.664Z,2.30
2019-05-09T06:14:58.191Z,2.30
2019-05-09T06:17:28.644Z,2.67
2019-05-09T06:19:58.899Z,2.72
2019-05-09T06:22:28.157Z,1.70
2019-05-09T06:24:58.250Z,2.00
2019-05-09T06:27:27.619Z,2.70
2019-05-09T06:29:58.151Z,2.20
2019-05-09T06:32:27.986Z,2.47
2019-05-09T06:34:57.789Z,1.98
2019-05-09T06:37:27.706Z,1.98
2019-05-09T06:39:58.254Z,1.80
2019-05-09T06:42:28.642Z,2.37
2019-05-09T06:45:03.578Z,2.27
2019-05-09T06:47:34.124Z,2.50
2019-05-09T06:50:04.973Z,2.70
2019-05-09T06:52:33.982Z,3.00
2019-05-09T06:55:02.894Z,2.50
2019-05-09T06:57:31.903Z,2.22
2019-05-09T07:00:00.807Z,1.87
2019-05-09T07:02:40.257Z,2.25
2019-05-09T07:05:10.785Z,2.45
2019-05-09T07:07:41.350Z,2.37
2019-05-09T07:10:12.510Z,2.17
2019-05-09T07:12:41.621Z,2.75
2019-05-09T07:15:10.652Z,2.08
2019-05-09T07:17:39.641Z,2.42
2019-05-09T07:20:09.041Z,2.60
2019-05-09T07:22:39.578Z,2.80
2019-05-09T07:25:11.315Z,2.47
2019-05-09T07:27:41.825Z,2.08
2019-05-09T07:30:21.783Z,2.67
2019-05-09T07:33:08.804Z,2.72
2019-05-09T07:35:38.291Z,2.70
2019-05-09T07:38:08.560Z,2.22
2019-05-09T07:40:38.478Z,2.45
2019-05-09T07:43:07.973Z,2.15
2019-05-09T07:45:38.378Z,2.25
2019-05-09T07:48:07.746Z,2.62
2019-05-09T07:50:38.829Z,2.00
2019-05-09T07:53:08.756Z,3.05
2019-05-09T07:55:38.104Z,1.85
2019-05-09T07:58:08.029Z,3.35
2019-05-09T08:00:38.427Z,1.50
2019-05-09T08:03:10.550Z,2.33
2019-05-09T08:05:38.627Z,1.47
2019-05-09T08:08:10.705Z,2.15
2019-05-09T08:10:39.642Z,1.60
2019-05-09T08:13:11.790Z,1.75
2019-05-09T08:15:39.174Z,1.50
2019-05-09T08:18:08.643Z,2.27
2019-05-09T08:20:40.402Z,1.77
2019-05-09T08:23:08.818Z,1.72
2019-05-09T08:25:38.392Z,3.05
2019-05-09T08:28:09.031Z,1.70
2019-05-09T08:30:40.338Z,2.30
2019-05-09T08:33:08.584Z,1.98
2019-05-09T08:35:38.297Z,1.77
2019-05-09T08:38:08.566Z,1.72
2019-05-09T08:40:38.411Z,1.83
2019-05-09T08:43:07.756Z,2.10
2019-05-09T08:45:38.261Z,1.60
2019-05-09T08:48:09.438Z,1.40
2019-05-09T08:50:44.038Z,1.47
2019-05-09T08:53:13.051Z,1.45
2019-05-09T08:55:41.957Z,1.60
2019-05-09T08:58:10.819Z,1.67
2019-05-09T09:00:41.089Z,1.47
2019-05-09T09:03:11.135Z,1.50
2019-05-09T09:05:43.109Z,1.17
2019-05-09T09:08:10.794Z,2.10
2019-05-09T09:10:39.701Z,1.85
2019-05-09T09:13:09.115Z,1.60
2019-05-09T09:16:02.729Z,1.85
2019-05-09T09:18:08.948Z,1.45
2019-05-09T09:20:38.295Z,1.27
2019-05-09T09:23:08.864Z,1.40
2019-05-09T09:25:39.007Z,2.02
2019-05-09T09:28:10.030Z,2.02
2019-05-09T09:30:39.254Z,1.65
2019-05-09T09:33:11.432Z,1.70
2019-05-09T09:35:38.816Z,1.72
2019-05-09T09:38:09.327Z,2.00
2019-05-09T09:40:38.665Z,1.65
2019-05-09T09:43:09.157Z,1.62
2019-05-09T09:45:38.637Z,2.33
2019-05-09T09:48:09.084Z,1.47
2019-05-09T09:50:38.496Z,2.20
2019-05-09T09:53:08.680Z,1.70
2019-05-09T09:55:38.651Z,2.00
2019-05-09T09:58:08.233Z,1.75
2019-05-09T10:00:49.794Z,2.10
2019-05-09T10:05:49.034Z,2.00
2019-05-09T10:08:18.377Z,1.55
2019-05-09T10:10:48.576Z,1.70
2019-05-09T10:13:18.535Z,1.62
2019-05-09T10:15:49.376Z,1.77
2019-05-09T10:18:27.630Z,1.60
2019-05-09T10:20:58.543Z,1.55
2019-05-09T10:23:27.866Z,1.82
2019-05-09T10:25:58.171Z,1.90
2019-05-09T10:28:30.001Z,2.12
2019-05-09T10:30:57.914Z,2.05
2019-05-09T10:33:28.032Z,1.57
2019-05-09T10:36:04.149Z,1.90
2019-05-09T10:38:28.053Z,1.72
2019-05-09T10:41:01.204Z,1.65
2019-05-09T10:43:48.574Z,1.62
2019-05-09T10:46:19.723Z,1.90
2019-05-09T10:48:50.187Z,1.40
2019-05-09T10:51:19.213Z,2.08
2019-05-09T10:53:48.319Z,1.52
2019-05-09T10:56:18.680Z,1.62
2019-05-09T10:58:48.374Z,1.95
2019-05-09T11:01:18.518Z,1.57
2019-05-09T11:03:48.504Z,1.93
2019-05-09T11:06:18.531Z,2.50
2019-05-09T11:08:48.038Z,1.70
2019-05-09T11:11:18.146Z,1.72
2019-05-09T11:13:48.447Z,1.62
2019-05-09T11:16:18.368Z,1.60
2019-05-09T11:18:48.450Z,1.67
2019-05-09T11:21:19.314Z,1.65
2019-05-09T11:23:48.975Z,2.00
2019-05-09T11:26:18.482Z,1.90
2019-05-09T11:28:47.687Z,1.70
2019-05-09T11:31:18.452Z,1.65
2019-05-09T11:33:48.351Z,1.87
2019-05-09T11:36:21.165Z,1.85
2019-05-09T11:38:49.690Z,2.27
2019-05-09T11:41:19.511Z,1.72
2019-05-09T11:43:48.868Z,1.62
2019-05-09T11:46:18.453Z,1.70
2019-05-09T11:48:47.637Z,2.60
2019-05-09T11:51:20.538Z,2.85
2019-05-09T11:53:48.566Z,2.52
2019-05-09T11:56:18.143Z,1.82
2019-05-09T11:58:48.545Z,2.08
2019-05-09T12:01:19.282Z,1.95
2019-05-09T12:03:52.035Z,2.20
2019-05-09T12:06:20.203Z,2.00
2019-05-09T12:08:50.336Z,2.50
2019-05-09T12:11:19.369Z,2.87
2019-05-09T12:13:48.827Z,1.70
2019-05-09T12:16:18.766Z,1.60
2019-05-09T12:18:48.977Z,1.80
2019-05-09T12:21:19.114Z,1.83
2019-05-09T12:23:49.340Z,1.80
2019-05-09T12:26:19.552Z,1.93
2019-05-09T12:28:48.753Z,2.30
2019-05-09T12:31:18.348Z,1.87
2019-05-09T12:33:48.427Z,2.00
2019-05-09T12:36:19.079Z,2.42
2019-05-09T12:38:49.903Z,1.87
2019-05-09T12:41:19.320Z,1.75
2019-05-09T12:43:48.472Z,1.72
2019-05-09T12:46:17.381Z,1.90
2019-05-09T12:48:48.118Z,2.30
2019-05-09T12:51:18.449Z,2.67
2019-05-09T12:53:48.539Z,2.00
2019-05-09T12:56:18.899Z,1.80
2019-05-09T12:58:48.159Z,2.50
2019-05-09T13:01:18.846Z,2.17
2019-05-09T13:03:48.442Z,2.05
2019-05-09T13:06:20.070Z,1.55
2019-05-09T13:08:48.294Z,1.47
2019-05-09T13:11:18.836Z,2.10
2019-05-09T13:13:48.068Z,1.42
2019-05-09T13:16:39.762Z,2.00
2019-05-09T13:19:02.742Z,2.08
2019-05-09T13:21:32.829Z,1.75
2019-05-09T13:24:02.455Z,1.98
2019-05-09T13:26:31.514Z,1.75
2019-05-09T13:29:00.438Z,1.72
2019-05-09T13:31:29.703Z,1.80
2019-05-09T13:33:58.795Z,1.92
2019-05-09T13:36:28.473Z,2.00
2019-05-09T13:39:04.164Z,2.10
2019-05-09T13:41:28.761Z,1.40
2019-05-09T13:44:03.612Z,1.70
2019-05-09T13:46:28.528Z,1.95
2019-05-09T13:49:10.753Z,2.37
2019-05-09T13:51:28.064Z,2.00
2019-05-09T13:53:59.048Z,1.60
2019-05-09T13:56:28.096Z,1.75
2019-05-09T13:58:58.110Z,1.70
2019-05-09T14:01:27.390Z,1.50
2019-05-09T14:03:57.714Z,1.80
2019-05-09T14:06:27.780Z,1.80
2019-05-09T14:08:59.434Z,1.70
2019-05-09T14:11:29.165Z,1.52
2019-05-09T14:13:58.080Z,1.82
2019-05-09T14:16:28.689Z,1.65
2019-05-09T14:19:00.618Z,1.40
2019-05-09T14:21:29.789Z,1.60
2019-05-09T14:24:10.907Z,2.10
2019-05-09T14:26:29.566Z,1.77
2019-05-09T14:28:58.475Z,1.70
2019-05-09T14:31:31.839Z,1.62
2019-05-09T14:33:58.030Z,1.55
2019-05-09T14:36:27.750Z,1.65
2019-05-09T14:38:58.036Z,1.52
2019-05-09T14:41:27.759Z,1.70
2019-05-09T14:43:59.506Z,1.72
2019-05-09T14:46:28.474Z,2.22
2019-05-09T14:48:58.382Z,1.70
2019-05-09T14:51:29.297Z,1.72
2019-05-09T14:53:59.411Z,1.70
2019-05-09T14:56:28.744Z,1.70
2019-05-09T14:58:58.216Z,1.70
2019-05-09T15:01:28.827Z,1.70
2019-05-09T15:03:58.784Z,1.77
2019-05-09T15:06:28.331Z,1.85
2019-05-09T15:08:58.127Z,1.37
2019-05-09T15:11:28.187Z,1.77
2019-05-09T15:13:58.429Z,1.45
2019-05-09T15:16:28.197Z,1.95
2019-05-09T15:18:58.464Z,1.67
2019-05-09T15:21:27.533Z,1.55
2019-05-09T15:23:58.575Z,1.60
2019-05-09T15:26:27.703Z,1.62
2019-05-09T15:28:57.780Z,1.90
2019-05-09T15:31:28.578Z,1.67
2019-05-09T15:33:57.503Z,1.55
2019-05-09T15:36:26.513Z,1.72
2019-05-09T15:38:55.401Z,1.60
2019-05-09T15:41:24.334Z,1.52
2019-05-09T15:43:53.338Z,2.33
2019-05-09T15:46:23.886Z,1.77
2019-05-09T15:48:52.917Z,1.92
2019-05-09T15:51:21.801Z,1.67
2019-05-09T15:53:50.810Z,1.82
2019-05-09T15:56:19.829Z,1.90
2019-05-09T15:58:49.156Z,1.60
2019-05-09T16:01:18.544Z,1.60
2019-05-09T16:03:48.534Z,1.70
2019-05-09T16:06:19.878Z,1.50
2019-05-09T16:08:48.351Z,1.35
2019-05-09T16:11:17.999Z,1.60
2019-05-09T16:13:47.965Z,1.60
2019-05-09T16:16:18.373Z,1.80
2019-05-09T16:18:48.699Z,1.77
2019-05-09T16:21:17.904Z,1.52
2019-05-09T16:23:48.671Z,1.87
2019-05-09T16:26:18.201Z,1.80
2019-05-09T16:28:48.785Z,1.92
2019-05-09T16:31:17.936Z,1.75
2019-05-09T16:33:47.743Z,1.52
2019-05-09T16:36:17.926Z,1.85
2019-05-09T16:38:49.095Z,1.85
2019-05-09T16:41:18.550Z,1.62
2019-05-09T16:43:48.042Z,1.85
2019-05-09T16:46:18.145Z,1.65
2019-05-09T16:48:47.617Z,2.75
2019-05-09T16:51:18.219Z,1.62
2019-05-09T16:53:49.554Z,1.90
2019-05-09T16:56:18.172Z,2.10
2019-05-09T16:58:47.182Z,2.10
2019-05-09T17:01:18.536Z,2.25
2019-05-09T17:06:18.387Z,2.10
2019-05-09T17:08:47.694Z,1.90
2019-05-09T17:11:19.220Z,1.57
2019-05-09T17:13:47.233Z,1.55
2019-05-09T17:16:17.740Z,1.95
2019-05-09T17:18:48.669Z,1.70
2019-05-09T17:21:34.472Z,1.90
2019-05-09T17:24:05.020Z,1.70
2019-05-09T17:26:33.922Z,1.80
2019-05-09T17:29:02.775Z,1.65
2019-05-09T17:31:31.737Z,1.98
2019-05-09T17:34:00.651Z,1.60
2019-05-09T17:36:29.554Z,2.00
2019-05-09T17:38:58.462Z,1.75
2019-05-09T17:41:28.448Z,1.60
2019-05-09T17:43:58.178Z,1.80
2019-05-09T17:46:27.622Z,1.90
2019-05-09T17:48:58.247Z,1.65
2019-05-09T17:51:33.878Z,2.70
2019-05-09T17:53:58.450Z,1.98
2019-05-09T17:56:27.569Z,2.37
2019-05-09T17:58:57.838Z,2.40
2019-05-09T18:01:27.708Z,2.12
2019-05-09T18:03:59.042Z,1.90
2019-05-09T18:06:28.155Z,2.30
2019-05-09T18:08:57.720Z,2.20
2019-05-09T18:11:26.953Z,2.10
2019-05-09T18:13:55.862Z,1.87
2019-05-09T18:16:24.769Z,2.10
2019-05-09T18:18:55.810Z,2.10
2019-05-09T18:21:24.732Z,2.20
2019-05-09T18:23:53.640Z,2.45
2019-05-09T18:26:22.550Z,2.25
2019-05-09T18:28:51.455Z,2.02
2019-05-09T18:31:22.004Z,2.12
2019-05-09T18:33:55.212Z,2.45
2019-05-09T18:36:24.118Z,2.10
2019-05-09T18:38:53.010Z,2.10
2019-05-09T18:41:22.034Z,1.90
2019-05-09T18:43:50.940Z,2.20
2019-05-09T18:46:21.672Z,1.98
2019-05-09T18:48:50.499Z,2.62
2019-05-09T18:51:19.411Z,2.98
2019-05-09T18:53:48.312Z,2.95
2019-05-09T18:56:17.321Z,3.35
2019-05-09T18:58:46.231Z,3.12
2019-05-09T19:01:15.137Z,2.52
2019-05-09T19:03:44.045Z,2.62
2019-05-09T19:06:12.937Z,2.55
2019-05-09T19:08:41.844Z,2.70
2019-05-09T19:11:10.770Z,2.50
2019-05-09T19:13:39.781Z,2.52
2019-05-09T19:16:10.323Z,2.40
2019-05-09T19:18:56.118Z,2.83
2019-05-09T19:21:29.735Z,3.33
2019-05-09T19:23:58.647Z,3.22
2019-05-09T19:26:36.659Z,3.17
2019-05-09T19:29:09.350Z,2.90
2019-05-09T19:31:39.228Z,2.95
2019-05-09T19:34:08.193Z,3.52
2019-05-09T19:36:37.309Z,2.95
2019-05-09T19:39:10.237Z,3.12
2019-05-09T19:41:39.409Z,2.10
2019-05-09T19:44:08.326Z,3.12
2019-05-09T19:46:37.253Z,3.10
2019-05-09T19:49:06.147Z,2.50
2019-05-09T19:51:35.051Z,2.67
2019-05-09T19:54:05.355Z,2.98
2019-05-09T19:56:34.306Z,3.10
2019-05-09T19:59:06.716Z,3.00
2019-05-09T20:01:33.753Z,2.77
2019-05-09T20:04:03.687Z,2.70
2019-05-09T20:06:32.590Z,2.40
2019-05-09T20:09:01.932Z,2.33
2019-05-09T20:11:44.746Z,2.25
2019-05-09T20:14:15.177Z,2.20
2019-05-09T20:16:47.190Z,2.20
2019-05-09T20:19:16.281Z,2.00
2019-05-09T20:21:45.181Z,2.00
2019-05-09T20:24:14.129Z,2.30
2019-05-09T20:26:43.203Z,2.12
2019-05-09T20:29:12.295Z,2.25
2019-05-09T20:31:41.320Z,2.05
2019-05-09T20:34:10.225Z,1.90
2019-05-09T20:36:39.151Z,2.35
2019-05-09T20:39:08.466Z,1.57
2019-05-09T20:41:37.563Z,1.85
2019-05-09T20:44:06.777Z,1.60
2019-05-09T20:46:35.890Z,1.47
2019-05-09T20:49:05.107Z,1.90
2019-05-09T20:51:34.215Z,1.80
2019-05-09T20:54:03.533Z,2.02
2019-05-09T20:56:32.646Z,2.22
2019-05-09T20:59:01.763Z,1.72
2019-05-09T21:01:30.876Z,1.60
2019-05-09T21:04:00.911Z,1.52
2019-05-09T21:06:30.226Z,1.52
2019-05-09T21:08:59.232Z,1.40
2019-05-09T21:11:28.349Z,1.35
2019-05-09T21:13:57.456Z,1.57
2019-05-09T21:16:26.574Z,1.60
2019-05-09T21:18:55.680Z,1.47
2019-05-09T21:21:24.793Z,1.77
2019-05-09T21:23:55.237Z,1.60
2019-05-09T21:26:24.348Z,1.60
2019-05-09T21:28:53.462Z,1.70
2019-05-09T21:31:22.576Z,1.55
2019-05-09T21:33:51.686Z,1.20
2019-05-09T21:36:20.601Z,1.50
2019-05-09T21:38:49.502Z,1.37
2019-05-09T21:41:18.418Z,1.80
2019-05-09T21:43:47.524Z,1.80
2019-05-09T21:46:16.535Z,1.32
2019-05-09T21:48:45.446Z,1.77
2019-05-09T21:51:14.447Z,1.72
2019-05-09T21:53:43.356Z,1.80
2019-05-09T21:56:12.267Z,1.75
2019-05-09T21:58:42.094Z,2.00
2019-05-09T22:01:15.702Z,1.52
2019-05-09T22:03:44.724Z,1.45
2019-05-09T22:06:14.644Z,1.50
2019-05-09T22:08:43.559Z,1.37
2019-05-09T22:11:12.570Z,1.60
2019-05-09T22:13:43.130Z,1.80
2019-05-09T22:16:12.006Z,1.60
2019-05-09T22:18:41.133Z,1.72
2019-05-09T22:21:11.583Z,1.98
2019-05-09T22:23:55.144Z,1.87
2019-05-09T22:26:11.034Z,1.80
2019-05-09T22:28:39.937Z,2.05
2019-05-09T22:31:08.824Z,1.80
2019-05-09T22:33:37.755Z,1.57
2019-05-09T22:36:06.661Z,1.35
2019-05-09T22:38:35.496Z,1.77
2019-05-09T22:41:04.482Z,1.90
2019-05-09T22:43:33.386Z,1.95
2019-05-09T22:46:02.295Z,2.10
2019-05-09T22:48:31.301Z,1.70
2019-05-09T22:51:00.313Z,1.82
2019-05-09T22:53:29.321Z,1.52
2019-05-09T22:55:58.228Z,1.90
2019-05-09T22:58:27.137Z,1.60
2019-05-09T23:00:56.762Z,2.05
2019-05-09T23:03:25.652Z,1.90
2019-05-09T23:05:54.576Z,1.70
2019-05-09T23:08:23.485Z,1.80
2019-05-09T23:10:53.512Z,1.92
2019-05-09T23:13:22.735Z,2.10
2019-05-09T23:15:51.642Z,2.08
2019-05-09T23:18:20.547Z,2.00
2019-05-09T23:20:50.993Z,1.87
2019-05-09T23:23:21.535Z,1.87
2019-05-09T23:25:50.446Z,2.15
2019-05-09T23:28:19.349Z,2.22
2019-05-09T23:30:49.799Z,1.92
2019-05-09T23:33:19.013Z,1.85
2019-05-09T23:35:47.935Z,1.95
2019-05-09T23:38:16.926Z,2.20
2019-05-09T23:40:45.838Z,1.95
2019-05-09T23:43:14.744Z,2.17
2019-05-09T23:45:43.651Z,1.82
2019-05-09T23:48:14.068Z,2.02
2019-05-09T23:50:43.001Z,2.10
2019-05-09T23:53:11.908Z,2.08
2019-05-09T23:55:58.623Z,2.50
2019-05-09T23:58:45.545Z,2.20
